sensor_id;sensor_type;location;lat;lon;timestamp;pressure;altitude;pressure_sealevel;temperature;humidity
67980;BME280;54760;47.490;19.030;2023-06-01T00:01:38;100291.44;;;18.89;56.53
67980;BME280;54760;47.490;19.030;2023-06-01T00:04:04;100286.62;;;18.99;55.93
67980;BME280;54760;47.490;19.030;2023-06-01T00:06:30;100291.06;;;19.06;55.58
67980;BME280;54760;47.490;19.030;2023-06-01T00:08:57;100281.53;;;18.97;55.30
67980;BME280;54760;47.490;19.030;2023-06-01T00:11:23;100287.91;;;18.89;55.40
67980;BME280;54760;47.490;19.030;2023-06-01T00:13:49;100281.94;;;18.81;55.27
67980;BME280;54760;47.490;19.030;2023-06-01T00:16:15;100284.41;;;18.79;55.33
67980;BME280;54760;47.490;19.030;2023-06-01T00:18:41;100284.56;;;18.34;57.27
67980;BME280;54760;47.490;19.030;2023-06-01T00:21:06;100278.31;;;18.15;58.30
67980;BME280;54760;47.490;19.030;2023-06-01T00:23:32;100279.50;;;18.74;56.46
67980;BME280;54760;47.490;19.030;2023-06-01T00:25:59;100277.50;;;18.75;56.56
67980;BME280;54760;47.490;19.030;2023-06-01T00:28:25;100279.41;;;18.59;56.52
67980;BME280;54760;47.490;19.030;2023-06-01T00:30:50;100271.50;;;18.76;55.99
67980;BME280;54760;47.490;19.030;2023-06-01T00:33:17;100273.44;;;18.52;56.39
67980;BME280;54760;47.490;19.030;2023-06-01T00:35:42;100269.25;;;18.05;58.66
67980;BME280;54760;47.490;19.030;2023-06-01T00:38:07;100272.38;;;18.40;57.65
67980;BME280;54760;47.490;19.030;2023-06-01T00:40:34;100273.66;;;18.30;57.71
67980;BME280;54760;47.490;19.030;2023-06-01T00:42:59;100271.81;;;18.27;57.57
67980;BME280;54760;47.490;19.030;2023-06-01T00:45:26;100271.00;;;18.36;57.19
67980;BME280;54760;47.490;19.030;2023-06-01T00:47:52;100272.66;;;18.42;56.76
67980;BME280;54760;47.490;19.030;2023-06-01T00:50:18;100269.75;;;18.46;56.74
67980;BME280;54760;47.490;19.030;2023-06-01T00:52:44;100272.75;;;18.24;57.28
67980;BME280;54760;47.490;19.030;2023-06-01T00:55:10;100273.19;;;18.32;56.71
67980;BME280;54760;47.490;19.030;2023-06-01T00:57:38;100273.63;;;18.39;56.39
67980;BME280;54760;47.490;19.030;2023-06-01T01:00:04;100278.22;;;18.42;56.03
67980;BME280;54760;47.490;19.030;2023-06-01T01:02:36;100265.44;;;18.03;56.91
67980;BME280;54760;47.490;19.030;2023-06-01T01:05:04;100263.69;;;18.14;56.57
67980;BME280;54760;47.490;19.030;2023-06-01T01:07:40;100266.34;;;18.00;56.87
67980;BME280;54760;47.490;19.030;2023-06-01T01:10:22;100267.59;;;17.90;57.26
67980;BME280;54760;47.490;19.030;2023-06-01T01:13:01;100259.75;;;17.97;57.15
67980;BME280;54760;47.490;19.030;2023-06-01T01:18:04;100263.69;;;16.87;61.04
67980;BME280;54760;47.490;19.030;2023-06-01T01:20:37;100255.91;;;17.13;60.31
67980;BME280;54760;47.490;19.030;2023-06-01T01:23:17;100256.09;;;17.64;58.90
67980;BME280;54760;47.490;19.030;2023-06-01T01:26:18;100259.00;;;17.69;58.66
67980;BME280;54760;47.490;19.030;2023-06-01T01:28:57;100260.06;;;17.26;60.32
67980;BME280;54760;47.490;19.030;2023-06-01T01:31:26;100253.28;;;17.18;60.55
67980;BME280;54760;47.490;19.030;2023-06-01T01:33:55;100259.00;;;17.79;58.26
67980;BME280;54760;47.490;19.030;2023-06-01T01:36:22;100264.84;;;17.81;57.92
67980;BME280;54760;47.490;19.030;2023-06-01T01:38:48;100254.53;;;17.72;58.17
67980;BME280;54760;47.490;19.030;2023-06-01T01:41:15;100256.63;;;18.04;57.15
67980;BME280;54760;47.490;19.030;2023-06-01T01:43:40;100257.75;;;17.98;57.19
67980;BME280;54760;47.490;19.030;2023-06-01T01:48:50;100256.69;;;17.86;57.04
67980;BME280;54760;47.490;19.030;2023-06-01T01:51:24;100254.97;;;17.89;57.22
67980;BME280;54760;47.490;19.030;2023-06-01T01:53:54;100258.06;;;17.36;58.62
67980;BME280;54760;47.490;19.030;2023-06-01T01:56:21;100258.50;;;17.16;59.50
67980;BME280;54760;47.490;19.030;2023-06-01T01:58:47;100264.06;;;17.53;58.32
67980;BME280;54760;47.490;19.030;2023-06-01T02:01:15;100264.97;;;17.31;58.65
67980;BME280;54760;47.490;19.030;2023-06-01T02:03:40;100259.91;;;17.30;58.54
67980;BME280;54760;47.490;19.030;2023-06-01T02:06:05;100262.22;;;17.41;58.03
67980;BME280;54760;47.490;19.030;2023-06-01T02:08:31;100255.16;;;17.40;57.87
67980;BME280;54760;47.490;19.030;2023-06-01T02:10:56;100257.91;;;17.58;57.00
67980;BME280;54760;47.490;19.030;2023-06-01T02:13:22;100255.78;;;17.35;58.03
67980;BME280;54760;47.490;19.030;2023-06-01T02:15:47;100256.88;;;16.61;60.96
67980;BME280;54760;47.490;19.030;2023-06-01T02:18:12;100257.22;;;16.81;60.56
67980;BME280;54760;47.490;19.030;2023-06-01T02:20:41;100250.94;;;16.89;60.32
67980;BME280;54760;47.490;19.030;2023-06-01T02:23:06;100252.31;;;16.85;60.29
67980;BME280;54760;47.490;19.030;2023-06-01T02:25:32;100243.91;;;17.16;58.79
67980;BME280;54760;47.490;19.030;2023-06-01T02:27:57;100232.09;;;17.24;58.22
67980;BME280;54760;47.490;19.030;2023-06-01T02:30:22;100238.84;;;17.23;58.15
67980;BME280;54760;47.490;19.030;2023-06-01T02:32:48;100245.88;;;17.06;58.98
67980;BME280;54760;47.490;19.030;2023-06-01T02:35:14;100239.91;;;17.17;59.12
67980;BME280;54760;47.490;19.030;2023-06-01T02:37:39;100230.22;;;17.03;59.73
67980;BME280;54760;47.490;19.030;2023-06-01T02:40:06;100230.50;;;16.96;59.97
67980;BME280;54760;47.490;19.030;2023-06-01T02:42:36;100228.41;;;17.09;59.75
67980;BME280;54760;47.490;19.030;2023-06-01T02:45:01;100227.13;;;17.01;59.82
67980;BME280;54760;47.490;19.030;2023-06-01T02:47:29;100229.78;;;16.96;60.05
67980;BME280;54760;47.490;19.030;2023-06-01T02:49:54;100225.91;;;16.93;60.22
67980;BME280;54760;47.490;19.030;2023-06-01T02:52:20;100222.25;;;17.23;59.20
67980;BME280;54760;47.490;19.030;2023-06-01T02:54:45;100235.47;;;17.10;59.68
67980;BME280;54760;47.490;19.030;2023-06-01T02:57:11;100224.25;;;17.05;59.66
67980;BME280;54760;47.490;19.030;2023-06-01T02:59:36;100224.69;;;17.03;59.68
67980;BME280;54760;47.490;19.030;2023-06-01T03:02:02;100231.31;;;17.15;58.71
67980;BME280;54760;47.490;19.030;2023-06-01T03:04:27;100231.31;;;17.24;58.56
67980;BME280;54760;47.490;19.030;2023-06-01T03:06:54;100229.63;;;17.08;59.08
67980;BME280;54760;47.490;19.030;2023-06-01T03:09:19;100234.81;;;17.06;58.95
67980;BME280;54760;47.490;19.030;2023-06-01T03:11:45;100240.19;;;16.92;59.10
67980;BME280;54760;47.490;19.030;2023-06-01T03:14:10;100235.75;;;16.94;58.79
67980;BME280;54760;47.490;19.030;2023-06-01T03:16:35;100235.94;;;17.18;58.01
67980;BME280;54760;47.490;19.030;2023-06-01T03:19:01;100238.06;;;17.05;57.93
67980;BME280;54760;47.490;19.030;2023-06-01T03:21:27;100236.09;;;17.05;57.63
67980;BME280;54760;47.490;19.030;2023-06-01T03:23:52;100238.19;;;17.01;57.51
67980;BME280;54760;47.490;19.030;2023-06-01T03:26:18;100231.88;;;16.82;58.44
67980;BME280;54760;47.490;19.030;2023-06-01T03:28:46;100236.09;;;17.14;57.25
67980;BME280;54760;47.490;19.030;2023-06-01T03:31:12;100231.16;;;17.18;57.07
67980;BME280;54760;47.490;19.030;2023-06-01T03:33:37;100236.69;;;17.18;56.56
67980;BME280;54760;47.490;19.030;2023-06-01T03:36:03;100236.69;;;17.09;56.97
67980;BME280;54760;47.490;19.030;2023-06-01T03:38:30;100226.25;;;16.15;60.05
67980;BME280;54760;47.490;19.030;2023-06-01T03:40:55;100243.91;;;16.58;59.14
67980;BME280;54760;47.490;19.030;2023-06-01T03:43:21;100235.75;;;17.12;57.22
67980;BME280;54760;47.490;19.030;2023-06-01T03:45:46;100227.47;;;17.21;57.13
67980;BME280;54760;47.490;19.030;2023-06-01T03:48:11;100236.84;;;17.33;56.78
67980;BME280;54760;47.490;19.030;2023-06-01T03:50:37;100226.41;;;17.19;57.14
67980;BME280;54760;47.490;19.030;2023-06-01T03:53:02;100222.56;;;17.16;57.26
67980;BME280;54760;47.490;19.030;2023-06-01T03:55:28;100221.03;;;17.33;56.92
67980;BME280;54760;47.490;19.030;2023-06-01T03:57:54;100226.56;;;17.33;56.77
67980;BME280;54760;47.490;19.030;2023-06-01T04:00:20;100221.16;;;17.21;57.09
67980;BME280;54760;47.490;19.030;2023-06-01T04:02:47;100230.25;;;17.40;57.03
67980;BME280;54760;47.490;19.030;2023-06-01T04:05:15;100227.16;;;17.38;57.15
67980;BME280;54760;47.490;19.030;2023-06-01T04:07:46;100225.03;;;17.32;57.73
67980;BME280;54760;47.490;19.030;2023-06-01T04:10:12;100227.16;;;17.38;57.69
67980;BME280;54760;47.490;19.030;2023-06-01T04:12:43;100226.84;;;17.45;57.29
67980;BME280;54760;47.490;19.030;2023-06-01T04:15:10;100224.72;;;17.40;57.38
67980;BME280;54760;47.490;19.030;2023-06-01T04:17:37;100224.22;;;17.50;57.29
67980;BME280;54760;47.490;19.030;2023-06-01T04:20:07;100229.31;;;17.43;57.62
67980;BME280;54760;47.490;19.030;2023-06-01T04:22:35;100226.25;;;17.22;58.20
67980;BME280;54760;47.490;19.030;2023-06-01T04:25:01;100228.38;;;17.46;57.63
67980;BME280;54760;47.490;19.030;2023-06-01T04:27:26;100229.31;;;17.52;56.97
67980;BME280;54760;47.490;19.030;2023-06-01T04:29:52;100228.41;;;17.27;57.79
67980;BME280;54760;47.490;19.030;2023-06-01T04:32:18;100232.09;;;17.24;58.46
67980;BME280;54760;47.490;19.030;2023-06-01T04:34:49;100232.22;;;16.54;60.25
67980;BME280;54760;47.490;19.030;2023-06-01T04:37:17;100239.28;;;16.85;59.25
67980;BME280;54760;47.490;19.030;2023-06-01T04:39:49;100234.53;;;17.22;58.20
67980;BME280;54760;47.490;19.030;2023-06-01T04:42:17;100234.19;;;16.75;59.39
67980;BME280;54760;47.490;19.030;2023-06-01T04:44:44;100225.28;;;16.89;59.84
67980;BME280;54760;47.490;19.030;2023-06-01T04:47:12;100236.56;;;17.49;58.34
67980;BME280;54760;47.490;19.030;2023-06-01T04:49:40;100235.47;;;17.47;58.94
67980;BME280;54760;47.490;19.030;2023-06-01T04:52:07;100240.22;;;17.83;58.24
67980;BME280;54760;47.490;19.030;2023-06-01T04:54:33;100229.78;;;17.41;58.87
67980;BME280;54760;47.490;19.030;2023-06-01T04:56:58;100236.25;;;17.65;57.62
67980;BME280;54760;47.490;19.030;2023-06-01T04:59:23;100242.56;;;17.29;58.20
67980;BME280;54760;47.490;19.030;2023-06-01T05:01:49;100234.84;;;17.43;57.97
67980;BME280;54760;47.490;19.030;2023-06-01T05:04:14;100235.31;;;17.41;58.08
67980;BME280;54760;47.490;19.030;2023-06-01T05:06:40;100241.00;;;17.47;57.57
67980;BME280;54760;47.490;19.030;2023-06-01T05:09:05;100239.63;;;17.69;56.34
67980;BME280;54760;47.490;19.030;2023-06-01T05:11:31;100238.25;;;17.65;56.78
67980;BME280;54760;47.490;19.030;2023-06-01T05:13:56;100238.53;;;17.85;56.38
67980;BME280;54760;47.490;19.030;2023-06-01T05:16:27;100236.97;;;17.93;56.79
67980;BME280;54760;47.490;19.030;2023-06-01T05:18:53;100246.12;;;18.27;56.07
67980;BME280;54760;47.490;19.030;2023-06-01T05:21:19;100242.03;;;18.46;58.05
67980;BME280;54760;47.490;19.030;2023-06-01T05:23:44;100244.94;;;18.84;56.71
67980;BME280;54760;47.490;19.030;2023-06-01T05:26:10;100245.97;;;18.96;57.30
67980;BME280;54760;47.490;19.030;2023-06-01T05:28:35;100252.03;;;19.09;56.23
67980;BME280;54760;47.490;19.030;2023-06-01T05:31:01;100247.84;;;19.52;54.98
67980;BME280;54760;47.490;19.030;2023-06-01T05:33:27;100242.22;;;19.61;54.62
67980;BME280;54760;47.490;19.030;2023-06-01T05:35:52;100247.31;;;19.77;53.76
67980;BME280;54760;47.490;19.030;2023-06-01T05:38:18;100246.94;;;19.84;52.85
67980;BME280;54760;47.490;19.030;2023-06-01T05:40:44;100235.53;;;19.82;51.75
67980;BME280;54760;47.490;19.030;2023-06-01T05:43:10;100242.12;;;20.00;50.08
67980;BME280;54760;47.490;19.030;2023-06-01T05:45:36;100234.00;;;20.11;49.43
67980;BME280;54760;47.490;19.030;2023-06-01T05:48:02;100227.66;;;20.25;48.54
67980;BME280;54760;47.490;19.030;2023-06-01T05:50:27;100234.31;;;20.13;47.95
67980;BME280;54760;47.490;19.030;2023-06-01T05:52:53;100240.22;;;19.76;48.87
67980;BME280;54760;47.490;19.030;2023-06-01T05:55:18;100232.75;;;20.41;47.77
67980;BME280;54760;47.490;19.030;2023-06-01T05:57:44;100227.66;;;20.25;48.42
67980;BME280;54760;47.490;19.030;2023-06-01T06:00:11;100229.84;;;20.50;47.81
67980;BME280;54760;47.490;19.030;2023-06-01T06:02:42;100226.28;;;20.85;46.34
67980;BME280;54760;47.490;19.030;2023-06-01T06:05:08;100228.31;;;21.04;45.33
67980;BME280;54760;47.490;19.030;2023-06-01T06:07:34;100232.16;;;21.27;45.21
67980;BME280;54760;47.490;19.030;2023-06-01T06:09:59;100237.16;;;21.43;44.42
67980;BME280;54760;47.490;19.030;2023-06-01T06:12:25;100240.28;;;22.02;42.25
67980;BME280;54760;47.490;19.030;2023-06-01T06:14:50;100236.78;;;22.76;39.57
67980;BME280;54760;47.490;19.030;2023-06-01T06:17:16;100237.37;;;23.50;39.22
67980;BME280;54760;47.490;19.030;2023-06-01T06:19:42;100236.63;;;23.61;37.02
67980;BME280;54760;47.490;19.030;2023-06-01T06:22:11;100240.09;;;23.39;38.73
67980;BME280;54760;47.490;19.030;2023-06-01T06:24:36;100233.09;;;22.59;39.42
67980;BME280;54760;47.490;19.030;2023-06-01T06:27:02;100236.75;;;22.02;40.71
67980;BME280;54760;47.490;19.030;2023-06-01T06:29:29;100231.75;;;22.43;41.26
67980;BME280;54760;47.490;19.030;2023-06-01T06:31:54;100234.03;;;22.44;40.51
67980;BME280;54760;47.490;19.030;2023-06-01T06:34:20;100230.09;;;21.94;40.16
67980;BME280;54760;47.490;19.030;2023-06-01T06:36:45;100236.28;;;21.57;40.54
67980;BME280;54760;47.490;19.030;2023-06-01T06:39:11;100230.97;;;22.11;39.95
67980;BME280;54760;47.490;19.030;2023-06-01T06:41:37;100232.34;;;22.21;39.89
67980;BME280;54760;47.490;19.030;2023-06-01T06:44:04;100224.28;;;21.97;40.97
67980;BME280;54760;47.490;19.030;2023-06-01T06:46:30;100228.34;;;22.33;39.81
67980;BME280;54760;47.490;19.030;2023-06-01T06:48:55;100224.00;;;22.64;39.94
67980;BME280;54760;47.490;19.030;2023-06-01T06:51:21;100226.91;;;22.43;39.62
67980;BME280;54760;47.490;19.030;2023-06-01T06:53:46;100219.66;;;22.20;38.29
67980;BME280;54760;47.490;19.030;2023-06-01T06:58:37;100230.81;;;21.94;39.28
67980;BME280;54760;47.490;19.030;2023-06-01T07:01:02;100231.25;;;22.13;39.31
67980;BME280;54760;47.490;19.030;2023-06-01T07:03:33;100222.56;;;22.74;37.54
67980;BME280;54760;47.490;19.030;2023-06-01T07:05:58;100221.09;;;22.84;37.46
67980;BME280;54760;47.490;19.030;2023-06-01T07:08:25;100223.72;;;22.56;38.25
67980;BME280;54760;47.490;19.030;2023-06-01T07:10:52;100217.09;;;22.54;39.30
67980;BME280;54760;47.490;19.030;2023-06-01T07:13:17;100223.87;;;22.41;39.69
67980;BME280;54760;47.490;19.030;2023-06-01T07:15:43;100223.72;;;23.04;39.32
67980;BME280;54760;47.490;19.030;2023-06-01T07:18:08;100223.97;;;23.01;38.13
